sensor_id;sensor_type;location;lat;lon;timestamp;pressure;altitude;pressure_sealevel;temperature;humidity
57234;BME280;43090;52.604;13.318;2022-11-21T00:01:27;100016.78;;;-1.91;100.00
57234;BME280;43090;52.604;13.318;2022-11-21T00:04:10;99985.84;;;-2.38;100.00
57234;BME280;43090;52.604;13.318;2022-11-21T00:06:49;99981.00;;;-2.52;100.00
57234;BME280;43090;52.604;13.318;2022-11-21T00:09:18;99954.00;;;-2.54;100.00
57234;BME280;43090;52.604;13.318;2022-11-21T00:11:44;99939.75;;;-2.45;100.00
57234;BME280;43090;52.604;13.318;2022-11-21T00:14:11;99951.53;;;-2.02;100.00
57234;BME280;43090;52.604;13.318;2022-11-21T00:16:38;99945.78;;;-1.86;100.00
57234;BME280;43090;52.604;13.318;2022-11-21T00:19:05;99941.56;;;-1.90;98.67
57234;BME280;43090;52.604;13.318;2022-11-21T00:21:31;99963.03;;;-1.79;98.72
57234;BME280;43090;52.604;13.318;2022-11-21T00:23:58;99957.16;;;-2.14;100.00
57234;BME280;43090;52.604;13.318;2022-11-21T00:26:39;99986.75;;;-2.09;99.97
57234;BME280;43090;52.604;13.318;2022-11-21T00:29:05;99933.13;;;-1.73;100.00
57234;BME280;43090;52.604;13.318;2022-11-21T00:31:32;99945.94;;;-1.64;98.97
57234;BME280;43090;52.604;13.318;2022-11-21T00:33:59;99945.78;;;-1.86;98.72
57234;BME280;43090;52.604;13.318;2022-11-21T00:36:26;99941.31;;;-2.11;99.91
57234;BME280;43090;52.604;13.318;2022-11-21T00:38:52;99946.09;;;-1.95;100.00
57234;BME280;43090;52.604;13.318;2022-11-21T00:41:19;99927.97;;;-2.03;100.00
57234;BME280;43090;52.604;13.318;2022-11-21T00:43:46;99911.09;;;-1.94;100.00
57234;BME280;43090;52.604;13.318;2022-11-21T00:46:16;99888.50;;;-2.27;100.00
57234;BME280;43090;52.604;13.318;2022-11-21T00:48:43;99924.44;;;-2.02;100.00
57234;BME280;43090;52.604;13.318;2022-11-21T00:51:09;99927.38;;;-1.85;100.00
57234;BME280;43090;52.604;13.318;2022-11-21T00:53:36;99928.75;;;-1.47;100.00
57234;BME280;43090;52.604;13.318;2022-11-21T00:56:06;99888.06;;;-1.86;99.50
57234;BME280;43090;52.604;13.318;2022-11-21T00:58:32;99921.59;;;-1.94;100.00
57234;BME280;43090;52.604;13.318;2022-11-21T01:01:11;99892.50;;;-1.88;100.00
57234;BME280;43090;52.604;13.318;2022-11-21T01:03:41;99916.34;;;-1.94;100.00
57234;BME280;43090;52.604;13.318;2022-11-21T01:06:10;99932.75;;;-1.89;100.00
57234;BME280;43090;52.604;13.318;2022-11-21T01:08:39;99915.22;;;-1.87;100.00
57234;BME280;43090;52.604;13.318;2022-11-21T01:11:09;99887.19;;;-1.87;100.00
57234;BME280;43090;52.604;13.318;2022-11-21T01:13:36;99903.50;;;-1.77;100.00
57234;BME280;43090;52.604;13.318;2022-11-21T01:16:09;99896.66;;;-1.81;100.00
57234;BME280;43090;52.604;13.318;2022-11-21T01:18:44;99925.78;;;-1.63;100.00
57234;BME280;43090;52.604;13.318;2022-11-21T01:21:17;99875.19;;;-1.94;100.00
57234;BME280;43090;52.604;13.318;2022-11-21T01:23:47;99908.50;;;-1.44;100.00
57234;BME280;43090;52.604;13.318;2022-11-21T01:26:19;99896.03;;;-1.62;100.00
57234;BME280;43090;52.604;13.318;2022-11-21T01:28:46;99880.19;;;-1.86;100.00
57234;BME280;43090;52.604;13.318;2022-11-21T01:31:16;99937.84;;;-1.32;100.00
57234;BME280;43090;52.604;13.318;2022-11-21T01:33:43;99857.88;;;-1.73;100.00
57234;BME280;43090;52.604;13.318;2022-11-21T01:36:21;99899.97;;;-1.76;100.00
57234;BME280;43090;52.604;13.318;2022-11-21T01:38:50;99902.91;;;-1.85;100.00
57234;BME280;43090;52.604;13.318;2022-11-21T01:41:31;99858.22;;;-2.09;100.00
57234;BME280;43090;52.604;13.318;2022-11-21T01:44:05;99875.84;;;-1.87;100.00
57234;BME280;43090;52.604;13.318;2022-11-21T01:46:32;99880.53;;;-1.45;100.00
57234;BME280;43090;52.604;13.318;2022-11-21T01:49:03;99917.50;;;-1.26;100.00
57234;BME280;43090;52.604;13.318;2022-11-21T01:57:13;99902.44;;;-1.46;100.00
57234;BME280;43090;52.604;13.318;2022-11-21T01:59:45;99896.34;;;-1.72;100.00
57234;BME280;43090;52.604;13.318;2022-11-21T02:02:16;99917.13;;;-1.15;100.00
57234;BME280;43090;52.604;13.318;2022-11-21T02:04:44;99861.13;;;-1.41;100.00
57234;BME280;43090;52.604;13.318;2022-11-21T02:07:13;99901.66;;;-0.99;100.00
57234;BME280;43090;52.604;13.318;2022-11-21T02:09:43;99885.66;;;-0.93;100.00
57234;BME280;43090;52.604;13.318;2022-11-21T02:12:20;99893.81;;;-0.77;98.42
57234;BME280;43090;52.604;13.318;2022-11-21T02:14:49;99864.59;;;-1.15;98.34
57234;BME280;43090;52.604;13.318;2022-11-21T02:17:17;99891.78;;;-0.92;98.40
57234;BME280;43090;52.604;13.318;2022-11-21T02:19:52;99892.69;;;-0.70;98.10
57234;BME280;43090;52.604;13.318;2022-11-21T02:22:45;99915.44;;;-0.69;96.36
57234;BME280;43090;52.604;13.318;2022-11-21T02:25:29;99883.97;;;-1.19;98.00
57234;BME280;43090;52.604;13.318;2022-11-21T02:27:58;99891.81;;;-1.18;98.96
57234;BME280;43090;52.604;13.318;2022-11-21T02:30:28;99851.56;;;-1.18;99.30
57234;BME280;43090;52.604;13.318;2022-11-21T02:32:59;99881.25;;;-0.69;98.41
57234;BME280;43090;52.604;13.318;2022-11-21T02:35:26;99872.84;;;-0.78;97.07
57234;BME280;43090;52.604;13.318;2022-11-21T02:37:58;99840.06;;;-0.92;96.54
57234;BME280;43090;52.604;13.318;2022-11-21T02:40:32;99882.97;;;-1.15;99.06
57234;BME280;43090;52.604;13.318;2022-11-21T02:45:40;99838.13;;;-1.34;100.00
57234;BME280;43090;52.604;13.318;2022-11-21T02:48:08;99832.75;;;-1.07;100.00
57234;BME280;43090;52.604;13.318;2022-11-21T02:50:38;99848.75;;;-0.90;99.82
57234;BME280;43090;52.604;13.318;2022-11-21T02:53:09;99835.97;;;-1.23;99.99
57234;BME280;43090;52.604;13.318;2022-11-21T02:55:36;99852.06;;;-1.32;99.74
57234;BME280;43090;52.604;13.318;2022-11-21T02:58:04;99845.16;;;-1.11;100.00
57234;BME280;43090;52.604;13.318;2022-11-21T03:00:33;99821.41;;;-1.08;98.90
57234;BME280;43090;52.604;13.318;2022-11-21T03:03:01;99850.28;;;-0.84;97.91
57234;BME280;43090;52.604;13.318;2022-11-21T03:05:28;99866.16;;;-0.63;97.59
57234;BME280;43090;52.604;13.318;2022-11-21T03:07:55;99853.94;;;-0.64;96.54
57234;BME280;43090;52.604;13.318;2022-11-21T03:10:21;99879.38;;;-0.43;95.81
57234;BME280;43090;52.604;13.318;2022-11-21T03:12:48;99838.81;;;-0.81;96.93
57234;BME280;43090;52.604;13.318;2022-11-21T03:15:14;99833.06;;;-0.91;97.50
57234;BME280;43090;52.604;13.318;2022-11-21T03:17:42;99796.66;;;-1.26;96.30
57234;BME280;43090;52.604;13.318;2022-11-21T03:20:09;99832.78;;;-1.31;97.24
57234;BME280;43090;52.604;13.318;2022-11-21T03:22:35;99806.28;;;-1.25;98.57
57234;BME280;43090;52.604;13.318;2022-11-21T03:25:02;99839.94;;;-0.89;96.88
57234;BME280;43090;52.604;13.318;2022-11-21T03:27:29;99822.31;;;-1.32;97.89
57234;BME280;43090;52.604;13.318;2022-11-21T03:29:55;99831.59;;;-1.47;99.75
57234;BME280;43090;52.604;13.318;2022-11-21T03:32:22;99813.00;;;-1.41;100.00
57234;BME280;43090;52.604;13.318;2022-11-21T03:34:48;99866.53;;;-0.96;99.95
57234;BME280;43090;52.604;13.318;2022-11-21T03:37:15;99863.22;;;-1.25;98.54
57234;BME280;43090;52.604;13.318;2022-11-21T03:39:42;99829.63;;;-1.17;98.22
57234;BME280;43090;52.604;13.318;2022-11-21T03:42:09;99794.34;;;-1.57;98.64
57234;BME280;43090;52.604;13.318;2022-11-21T03:44:36;99806.13;;;-1.94;99.78
57234;BME280;43090;52.604;13.318;2022-11-21T03:47:02;99874.13;;;-1.38;100.00
57234;BME280;43090;52.604;13.318;2022-11-21T03:49:29;99850.00;;;-1.47;100.00
57234;BME280;43090;52.604;13.318;2022-11-21T03:51:55;99869.25;;;-0.99;98.67
57234;BME280;43090;52.604;13.318;2022-11-21T03:54:22;99853.75;;;-1.80;100.00
57234;BME280;43090;52.604;13.318;2022-11-21T03:56:48;99870.28;;;-1.53;100.00
57234;BME280;43090;52.604;13.318;2022-11-21T03:59:15;99826.25;;;-1.95;100.00
57234;BME280;43090;52.604;13.318;2022-11-21T04:01:41;99823.38;;;-1.62;100.00
57234;BME280;43090;52.604;13.318;2022-11-21T04:04:08;99875.72;;;-1.08;99.82
57234;BME280;43090;52.604;13.318;2022-11-21T04:06:34;99863.63;;;-1.38;99.47
57234;BME280;43090;52.604;13.318;2022-11-21T04:09:01;99892.91;;;-0.99;98.54
57234;BME280;43090;52.604;13.318;2022-11-21T04:11:28;99882.28;;;-1.20;98.11
57234;BME280;43090;52.604;13.318;2022-11-21T04:13:54;99880.56;;;-1.21;96.85
57234;BME280;43090;52.604;13.318;2022-11-21T04:16:21;99843.03;;;-1.74;99.35
57234;BME280;43090;52.604;13.318;2022-11-21T04:18:47;99887.69;;;-1.25;98.79
57234;BME280;43090;52.604;13.318;2022-11-21T04:21:13;99901.34;;;-1.65;100.00
57234;BME280;43090;52.604;13.318;2022-11-21T04:23:40;99897.19;;;-1.46;100.00
57234;BME280;43090;52.604;13.318;2022-11-21T04:26:07;99876.56;;;-1.31;100.00
57234;BME280;43090;52.604;13.318;2022-11-21T04:28:33;99830.19;;;-1.32;99.57
57234;BME280;43090;52.604;13.318;2022-11-21T04:31:04;99896.41;;;-0.99;99.00
57234;BME280;43090;52.604;13.318;2022-11-21T04:33:37;99844.91;;;-1.28;97.71
57234;BME280;43090;52.604;13.318;2022-11-21T04:36:03;99842.31;;;-1.79;98.59
57234;BME280;43090;52.604;13.318;2022-11-21T04:38:30;99892.31;;;-1.31;99.19
57234;BME280;43090;52.604;13.318;2022-11-21T04:40:56;99901.16;;;-1.34;100.00
57234;BME280;43090;52.604;13.318;2022-11-21T04:43:23;99866.66;;;-1.74;100.00
57234;BME280;43090;52.604;13.318;2022-11-21T04:45:49;99893.53;;;-1.17;100.00
57234;BME280;43090;52.604;13.318;2022-11-21T04:48:16;99898.84;;;-1.18;99.56
57234;BME280;43090;52.604;13.318;2022-11-21T04:50:44;99839.28;;;-1.66;100.00
57234;BME280;43090;52.604;13.318;2022-11-21T04:53:11;99883.84;;;-1.65;100.00
57234;BME280;43090;52.604;13.318;2022-11-21T04:55:37;99860.00;;;-1.84;100.00
57234;BME280;43090;52.604;13.318;2022-11-21T04:58:04;99874.03;;;-1.35;100.00
57234;BME280;43090;52.604;13.318;2022-11-21T05:00:31;99857.75;;;-1.44;100.00
57234;BME280;43090;52.604;13.318;2022-11-21T05:03:02;99873.88;;;-0.82;98.27
57234;BME280;43090;52.604;13.318;2022-11-21T05:05:29;99870.41;;;-1.07;97.43
57234;BME280;43090;52.604;13.318;2022-11-21T05:07:56;99829.63;;;-1.17;97.03
57234;BME280;43090;52.604;13.318;2022-11-21T05:10:23;99865.47;;;-0.69;95.50
57234;BME280;43090;52.604;13.318;2022-11-21T05:12:58;99831.22;;;-1.37;97.09
57234;BME280;43090;52.604;13.318;2022-11-21T05:15:44;99858.47;;;-1.15;98.58
57234;BME280;43090;52.604;13.318;2022-11-21T05:18:11;99876.28;;;-1.00;96.58
57234;BME280;43090;52.604;13.318;2022-11-21T05:20:37;99852.78;;;-1.03;95.93
57234;BME280;43090;52.604;13.318;2022-11-21T05:23:04;99883.66;;;-0.86;95.13
57234;BME280;43090;52.604;13.318;2022-11-21T05:25:31;99880.19;;;-1.36;96.01
57234;BME280;43090;52.604;13.318;2022-11-21T05:27:57;99871.06;;;-1.49;98.43
57234;BME280;43090;52.604;13.318;2022-11-21T05:30:24;99863.78;;;-1.17;98.21
57234;BME280;43090;52.604;13.318;2022-11-21T05:32:51;99911.78;;;-0.88;96.21
57234;BME280;43090;52.604;13.318;2022-11-21T05:35:17;99841.91;;;-1.66;97.28
57234;BME280;43090;52.604;13.318;2022-11-21T05:37:46;99843.72;;;-1.69;99.17
57234;BME280;43090;52.604;13.318;2022-11-21T05:40:13;99871.34;;;-1.33;99.23
57234;BME280;43090;52.604;13.318;2022-11-21T05:42:41;99907.25;;;-1.08;98.16
57234;BME280;43090;52.604;13.318;2022-11-21T05:45:26;99844.72;;;-1.47;97.82
57234;BME280;43090;52.604;13.318;2022-11-21T05:47:57;99879.34;;;-0.87;97.16
57234;BME280;43090;52.604;13.318;2022-11-21T05:50:24;99881.50;;;-1.47;97.88
57234;BME280;43090;52.604;13.318;2022-11-21T05:52:50;99861.00;;;-1.38;98.79
57234;BME280;43090;52.604;13.318;2022-11-21T05:55:17;99886.50;;;-1.16;98.88
57234;BME280;43090;52.604;13.318;2022-11-21T05:57:44;99861.66;;;-1.56;100.00
57234;BME280;43090;52.604;13.318;2022-11-21T06:00:11;99842.63;;;-1.38;99.14
57234;BME280;43090;52.604;13.318;2022-11-21T06:02:43;99858.53;;;-1.17;98.50
57234;BME280;43090;52.604;13.318;2022-11-21T06:05:31;99863.50;;;-1.09;96.90
57234;BME280;43090;52.604;13.318;2022-11-21T06:07:58;99843.78;;;-1.21;96.63
57234;BME280;43090;52.604;13.318;2022-11-21T06:10:24;99899.06;;;-0.77;96.26
57234;BME280;43090;52.604;13.318;2022-11-21T06:12:51;99906.53;;;-0.88;95.35
57234;BME280;43090;52.604;13.318;2022-11-21T06:15:18;99901.59;;;-1.21;96.49
57234;BME280;43090;52.604;13.318;2022-11-21T06:17:47;99888.34;;;-1.43;99.03
57234;BME280;43090;52.604;13.318;2022-11-21T06:20:14;99918.97;;;-0.93;97.37
57234;BME280;43090;52.604;13.318;2022-11-21T06:22:41;99898.16;;;-0.99;96.23
57234;BME280;43090;52.604;13.318;2022-11-21T06:25:08;99890.41;;;-1.03;95.21
57234;BME280;43090;52.604;13.318;2022-11-21T06:27:50;99847.72;;;-1.33;95.44
57234;BME280;43090;52.604;13.318;2022-11-21T06:30:17;99849.84;;;-1.43;96.29
57234;BME280;43090;52.604;13.318;2022-11-21T06:32:47;99857.75;;;-1.44;96.13
57234;BME280;43090;52.604;13.318;2022-11-21T06:35:14;99901.38;;;-1.15;96.20
57234;BME280;43090;52.604;13.318;2022-11-21T06:37:42;99869.19;;;-1.97;98.77
57234;BME280;43090;52.604;13.318;2022-11-21T06:40:09;99906.31;;;-1.31;98.02
57234;BME280;43090;52.604;13.318;2022-11-21T06:42:36;99872.81;;;-1.75;98.01
57234;BME280;43090;52.604;13.318;2022-11-21T06:45:06;99871.63;;;-1.66;99.40
57234;BME280;43090;52.604;13.318;2022-11-21T06:54:01;99859.47;;;-1.69;97.23
57234;BME280;43090;52.604;13.318;2022-11-21T06:56:29;99855.81;;;-1.64;96.61
57234;BME280;43090;52.604;13.318;2022-11-21T06:58:57;99897.28;;;-1.74;99.08
57234;BME280;43090;52.604;13.318;2022-11-21T07:01:24;99866.25;;;-1.61;99.44
57234;BME280;43090;52.604;13.318;2022-11-21T07:04:00;99857.56;;;-1.63;99.70
57234;BME280;43090;52.604;13.318;2022-11-21T07:06:38;99888.44;;;-1.21;98.97
57234;BME280;43090;52.604;13.318;2022-11-21T07:09:13;99871.50;;;-1.12;97.46
57234;BME280;43090;52.604;13.318;2022-11-21T07:12:01;99916.78;;;-1.56;98.66
57234;BME280;43090;52.604;13.318;2022-11-21T07:15:00;99890.31;;;-1.75;99.32
57234;BME280;43090;52.604;13.318;2022-11-21T07:17:59;99882.50;;;-1.52;98.97
57234;BME280;43090;52.604;13.318;2022-11-21T07:20:32;99924.53;;;-2.05;99.11
57234;BME280;43090;52.604;13.318;2022-11-21T07:23:18;99894.66;;;-2.28;100.00
57234;BME280;43090;52.604;13.318;2022-11-21T07:26:25;99927.16;;;-1.52;99.90
57234;BME280;43090;52.604;13.318;2022-11-21T07:29:20;99905.56;;;-1.87;100.00
57234;BME280;43090;52.604;13.318;2022-11-21T07:32:03;99889.97;;;-1.91;100.00
57234;BME280;43090;52.604;13.318;2022-11-21T07:34:42;99896.47;;;-1.49;99.79
57234;BME280;43090;52.604;13.318;2022-11-21T07:37:08;99959.00;;;-1.36;98.26
57234;BME280;43090;52.604;13.318;2022-11-21T07:39:35;99942.47;;;-1.39;99.90
57234;BME280;43090;52.604;13.318;2022-11-21T07:42:02;99952.94;;;-1.64;99.44
57234;BME280;43090;52.604;13.318;2022-11-21T07:44:28;99954.31;;;-1.53;100.00
57234;BME280;43090;52.604;13.318;2022-11-21T07:46:55;99958.13;;;-1.61;100.00
57234;BME280;43090;52.604;13.318;2022-11-21T07:49:22;99920.22;;;-2.06;100.00
57234;BME280;43090;52.604;13.318;2022-11-21T07:51:51;99985.66;;;-1.75;100.00
57234;BME280;43090;52.604;13.318;2022-11-21T07:54:20;99954.38;;;-2.09;100.00
57234;BME280;43090;52.604;13.318;2022-11-21T07:56:54;99941.94;;;-2.59;100.00
57234;BME280;43090;52.604;13.318;2022-11-21T07:59:30;99914.44;;;-2.46;100.00
57234;BME280;43090;52.604;13.318;2022-11-21T08:02:02;99923.50;;;-2.28;100.00
57234;BME280;43090;52.604;13.318;2022-11-21T08:04:32;99934.34;;;-2.12;100.00
57234;BME280;43090;52.604;13.318;2022-11-21T08:07:04;99928.94;;;-2.06;100.00
57234;BME280;43090;52.604;13.318;2022-11-21T08:09:38;99937.31;;;-1.94;100.00
57234;BME280;43090;52.604;13.318;2022-11-21T08:12:07;99950.72;;;-2.04;100.00
57234;BME280;43090;52.604;13.318;2022-11-21T08:14:34;99966.13;;;-1.93;100.00
57234;BME280;43090;52.604;13.318;2022-11-21T08:17:17;99950.47;;;-1.96;99.60
57234;BME280;43090;52.604;13.318;2022-11-21T08:19:49;99956.13;;;-2.38;100.00
57234;BME280;43090;52.604;13.318;2022-11-21T08:22:16;99956.03;;;-1.78;100.00
57234;BME280;43090;52.604;13.318;2022-11-21T08:24:43;99933.75;;;-2.20;100.00
57234;BME280;43090;52.604;13.318;2022-11-21T08:27:09;99999.81;;;-2.07;100.00
57234;BME280;43090;52.604;13.318;2022-11-21T08:29:35;99935.09;;;-2.65;100.00
57234;BME280;43090;52.604;13.318;2022-11-21T08:32:02;100001.03;;;-2.19;100.00
57234;BME280;43090;52.604;13.318;2022-11-21T08:34:32;99976.56;;;-1.91;100.00
57234;BME280;43090;52.604;13.318;2022-11-21T08:36:58;100012.25;;;-1.59;100.00
57234;BME280;43090;52.604;13.318;2022-11-21T08:39:25;99965.53;;;-2.03;100.00
57234;BME280;43090;52.604;13.318;2022-11-21T08:41:58;99989.94;;;-1.72;100.00
57234;BME280;43090;52.604;13.318;2022-11-21T08:44:33;99981.22;;;-1.99;100.00
57234;BME280;43090;52.604;13.318;2022-11-21T08:47:00;99992.44;;;-1.96;100.00
57234;BME280;43090;52.604;13.318;2022-11-21T08:49:27;99991.56;;;-2.23;100.00
57234;BME280;43090;52.604;13.318;2022-11-21T08:51:54;100010.41;;;-2.40;100.00
57234;BME280;43090;52.604;13.318;2022-11-21T08:57:09;100028.03;;;-2.45;100.00
57234;BME280;43090;52.604;13.318;2022-11-21T08:59:36;99964.03;;;-2.68;100.00
57234;BME280;43090;52.604;13.318;2022-11-21T09:02:03;100030.31;;;-2.35;100.00
57234;BME280;43090;52.604;13.318;2022-11-21T09:04:29;99974.72;;;-2.76;100.00
57234;BME280;43090;52.604;13.318;2022-11-21T09:06:56;99993.63;;;-2.64;100.00
57234;BME280;43090;52.604;13.318;2022-11-21T09:09:22;100027.72;;;-2.35;100.00
57234;BME280;43090;52.604;13.318;2022-11-21T09:11:51;100011.09;;;-2.65;100.00
57234;BME280;43090;52.604;13.318;2022-11-21T09:14:18;99989.13;;;-2.61;100.00
57234;BME280;43090;52.604;13.318;2022-11-21T09:17:03;100013.13;;;-2.43;100.00
57234;BME280;43090;52.604;13.318;2022-11-21T09:19:48;100005.66;;;-2.57;100.00
57234;BME280;43090;52.604;13.318;2022-11-21T09:22:14;100030.56;;;-2.12;100.00
57234;BME280;43090;52.604;13.318;2022-11-21T09:24:41;99986.75;;;-2.39;100.00
57234;BME280;43090;52.604;13.318;2022-11-21T09:27:17;99981.84;;;-2.81;100.00
57234;BME280;43090;52.604;13.318;2022-11-21T09:29:51;100041.78;;;-2.07;100.00
57234;BME280;43090;52.604;13.318;2022-11-21T09:37:08;99981.41;;;-2.36;99.32
57234;BME280;43090;52.604;13.318;2022-11-21T09:40:00;100016.75;;;-2.49;99.44
57234;BME280;43090;52.604;13.318;2022-11-21T09:47:51;100023.34;;;-2.65;100.00
57234;BME280;43090;52.604;13.318;2022-11-21T09:50:34;100033.84;;;-2.06;100.00
57234;BME280;43090;52.604;13.318;2022-11-21T09:53:13;100047.59;;;-1.97;100.00
57234;BME280;43090;52.604;13.318;2022-11-21T09:55:48;100035.34;;;-1.97;100.00
57234;BME280;43090;52.604;13.318;2022-11-21T10:01:29;100059.31;;;-2.09;100.00
57234;BME280;43090;52.604;13.318;2022-11-21T10:03:58;100019.25;;;-2.14;100.00
57234;BME280;43090;52.604;13.318;2022-11-21T10:06:30;100059.59;;;-2.19;99.34
57234;BME280;43090;52.604;13.318;2022-11-21T10:09:11;100066.56;;;-1.88;100.00
57234;BME280;43090;52.604;13.318;2022-11-21T10:14:52;100052.78;;;-1.96;100.00
57234;BME280;43090;52.604;13.318;2022-11-21T10:20:24;100083.88;;;-1.82;100.00
57234;BME280;43090;52.604;13.318;2022-11-21T10:25:29;100076.03;;;-1.55;97.96
57234;BME280;43090;52.604;13.318;2022-11-21T10:28:07;100033.31;;;-2.17;98.98
57234;BME280;43090;52.604;13.318;2022-11-21T10:30:40;100068.03;;;-1.24;97.25
57234;BME280;43090;52.604;13.318;2022-11-21T10:33:13;100053.28;;;-1.83;96.32
57234;BME280;43090;52.604;13.318;2022-11-21T10:35:43;100056.97;;;-1.89;97.38
57234;BME280;43090;52.604;13.318;2022-11-21T10:38:23;100089.63;;;-1.99;98.79
57234;BME280;43090;52.604;13.318;2022-11-21T10:40:54;100071.81;;;-1.88;99.65
57234;BME280;43090;52.604;13.318;2022-11-21T10:43:38;100101.63;;;-1.62;97.92
57234;BME280;43090;52.604;13.318;2022-11-21T10:46:24;100061.44;;;-1.92;98.12
57234;BME280;43090;52.604;13.318;2022-11-21T10:48:56;100093.38;;;-1.78;98.03
57234;BME280;43090;52.604;13.318;2022-11-21T10:51:48;100037.19;;;-2.01;97.54
57234;BME280;43090;52.604;13.318;2022-11-21T10:54:16;100085.88;;;-1.90;96.42
57234;BME280;43090;52.604;13.318;2022-11-21T10:59:37;100086.19;;;-2.01;98.54
57234;BME280;43090;52.604;13.318;2022-11-21T11:04:40;100069.31;;;-1.64;98.71
57234;BME280;43090;52.604;13.318;2022-11-21T11:07:26;100069.03;;;-1.28;97.10
57234;BME280;43090;52.604;13.318;2022-11-21T11:10:17;100092.91;;;-1.36;96.71
57234;BME280;43090;52.604;13.318;2022-11-21T11:12:53;100082.03;;;-2.08;99.03
57234;BME280;43090;52.604;13.318;2022-11-21T11:18:40;100071.84;;;-1.07;97.88
57234;BME280;43090;52.604;13.318;2022-11-21T11:21:16;100062.22;;;-1.33;97.28
57234;BME280;43090;52.604;13.318;2022-11-21T11:23:43;100043.88;;;-1.08;97.55
57234;BME280;43090;52.604;13.318;2022-11-21T11:26:20;100073.34;;;-1.25;97.79
57234;BME280;43090;52.604;13.318;2022-11-21T11:28:48;100096.09;;;-1.26;97.13
57234;BME280;43090;52.604;13.318;2022-11-21T11:31:15;100087.19;;;-1.20;96.51
57234;BME280;43090;52.604;13.318;2022-11-21T11:33:50;100030.38;;;-1.51;96.51
57234;BME280;43090;52.604;13.318;2022-11-21T11:36:36;100085.97;;;-1.65;97.61
57234;BME280;43090;52.604;13.318;2022-11-21T11:39:12;100094.84;;;-1.69;97.54
57234;BME280;43090;52.604;13.318;2022-11-21T11:45:23;100079.63;;;-1.86;96.22
57234;BME280;43090;52.604;13.318;2022-11-21T11:48:12;100055.91;;;-1.55;94.07
57234;BME280;43090;52.604;13.318;2022-11-21T11:50:45;100087.59;;;-1.61;96.64
57234;BME280;43090;52.604;13.318;2022-11-21T11:55:49;100074.78;;;-1.17;95.09
57234;BME280;43090;52.604;13.318;2022-11-21T11:58:42;100092.81;;;-1.32;95.80
57234;BME280;43090;52.604;13.318;2022-11-21T12:01:36;100075.44;;;-1.37;95.60
57234;BME280;43090;52.604;13.318;2022-11-21T12:04:16;100080.09;;;-1.45;96.11
57234;BME280;43090;52.604;13.318;2022-11-21T12:10:07;100104.88;;;-0.73;95.35
57234;BME280;43090;52.604;13.318;2022-11-21T12:12:40;100019.81;;;-1.48;95.71
57234;BME280;43090;52.604;13.318;2022-11-21T12:18:14;100079.38;;;-1.23;92.77
57234;BME280;43090;52.604;13.318;2022-11-21T12:21:02;100062.91;;;-1.28;92.25
57234;BME280;43090;52.604;13.318;2022-11-21T12:23:51;100053.63;;;-1.12;92.91
57234;BME280;43090;52.604;13.318;2022-11-21T12:26:59;100083.69;;;-0.94;92.74
57234;BME280;43090;52.604;13.318;2022-11-21T12:29:40;100020.53;;;-1.44;93.60
57234;BME280;43090;52.604;13.318;2022-11-21T12:35:04;100077.34;;;-0.88;92.48
57234;BME280;43090;52.604;13.318;2022-11-21T12:43:33;100069.59;;;-1.18;93.73
57234;BME280;43090;52.604;13.318;2022-11-21T12:46:12;100047.31;;;-1.33;94.96
57234;BME280;43090;52.604;13.318;2022-11-21T12:49:07;100068.31;;;-0.81;94.22
57234;BME280;43090;52.604;13.318;2022-11-21T12:52:24;100062.66;;;-0.69;92.55
57234;BME280;43090;52.604;13.318;2022-11-21T12:55:34;100050.38;;;-0.93;93.24
57234;BME280;43090;52.604;13.318;2022-11-21T12:58:24;100038.38;;;-0.77;92.50
57234;BME280;43090;52.604;13.318;2022-11-21T13:03:44;100062.66;;;-0.69;91.02
57234;BME280;43090;52.604;13.318;2022-11-21T13:06:23;100050.09;;;-1.11;93.22
57234;BME280;43090;52.604;13.318;2022-11-21T13:08:51;100028.19;;;-0.86;92.00
57234;BME280;43090;52.604;13.318;2022-11-21T13:11:26;100064.66;;;-0.77;92.29
57234;BME280;43090;52.604;13.318;2022-11-21T13:30:51;100033.91;;;-0.98;92.29
57234;BME280;43090;52.604;13.318;2022-11-21T13:36:10;100065.69;;;-0.81;92.44
57234;BME280;43090;52.604;13.318;2022-11-21T13:47:27;100018.28;;;-1.55;93.81
57234;BME280;43090;52.604;13.318;2022-11-21T13:53:09;100016.97;;;-0.90;91.31
57234;BME280;43090;52.604;13.318;2022-11-21T13:56:23;100043.38;;;-1.20;93.44
57234;BME280;43090;52.604;13.318;2022-11-21T13:59:06;100043.66;;;-1.02;92.66
57234;BME280;43090;52.604;13.318;2022-11-21T14:04:56;99996.34;;;-1.27;93.06
57234;BME280;43090;52.604;13.318;2022-11-21T14:07:32;100013.81;;;-1.26;92.52
57234;BME280;43090;52.604;13.318;2022-11-21T14:10:17;100040.28;;;-1.06;92.93
57234;BME280;43090;52.604;13.318;2022-11-21T14:12:48;100015.75;;;-1.31;93.66
57234;BME280;43090;52.604;13.318;2022-11-21T14:15:45;100019.09;;;-1.26;94.08
57234;BME280;43090;52.604;13.318;2022-11-21T14:18:22;100019.38;;;-1.36;92.43
57234;BME280;43090;52.604;13.318;2022-11-21T14:20:54;100025.09;;;-1.23;94.05
57234;BME280;43090;52.604;13.318;2022-11-21T14:23:24;100027.78;;;-1.24;94.48
57234;BME280;43090;52.604;13.318;2022-11-21T14:25:55;100025.34;;;-1.30;94.34
57234;BME280;43090;52.604;13.318;2022-11-21T14:28:30;100025.00;;;-0.94;92.19
57234;BME280;43090;52.604;13.318;2022-11-21T14:31:02;100001.72;;;-1.05;92.12
57234;BME280;43090;52.604;13.318;2022-11-21T14:33:33;99995.00;;;-1.14;91.31
57234;BME280;43090;52.604;13.318;2022-11-21T14:36:01;100023.50;;;-1.02;92.01
57234;BME280;43090;52.604;13.318;2022-11-21T14:38:31;100018.53;;;-1.36;93.93
57234;BME280;43090;52.604;13.318;2022-11-21T14:46:25;99978.53;;;-1.19;92.16
57234;BME280;43090;52.604;13.318;2022-11-21T14:48:53;99978.38;;;-1.40;93.21
57234;BME280;43090;52.604;13.318;2022-11-21T14:51:23;99975.59;;;-1.35;91.83
57234;BME280;43090;52.604;13.318;2022-11-21T14:53:51;99941.44;;;-1.60;92.04
57234;BME280;43090;52.604;13.318;2022-11-21T14:56:30;99976.78;;;-1.19;92.39
57234;BME280;43090;52.604;13.318;2022-11-21T14:59:00;99970.25;;;-1.32;93.33
57234;BME280;43090;52.604;13.318;2022-11-21T15:01:29;99955.50;;;-1.61;93.15